createdAt,value
2019-04-14T00:00:01.161Z,75.71
2019-04-14T00:02:40.325Z,75.81
2019-04-14T00:05:15.303Z,75.57
2019-04-14T00:07:47.144Z,75.65
2019-04-14T00:10:20.372Z,75.91
2019-04-14T00:12:53.425Z,75.77
2019-04-14T00:15:32.946Z,75.76
2019-04-14T00:17:59.002Z,75.69
2019-04-14T00:20:31.760Z,75.50
2019-04-14T00:23:04.372Z,75.55
2019-04-14T00:25:37.024Z,75.40
2019-04-14T00:28:09.491Z,75.80
2019-04-14T00:30:42.558Z,75.85
2019-04-14T00:33:19.245Z,76.22
2019-04-14T00:36:08.750Z,75.87
2019-04-14T00:38:43.216Z,75.94
2019-04-14T00:41:34.359Z,76.00
2019-04-14T00:43:57.740Z,76.17
2019-04-14T00:46:43.109Z,76.03
2019-04-14T00:49:15.748Z,75.96
2019-04-14T00:51:48.437Z,76.36
2019-04-14T00:54:20.192Z,76.39
2019-04-14T00:56:52.029Z,76.32
2019-04-14T00:59:24.535Z,76.10
2019-04-14T01:01:56.939Z,76.58
2019-04-14T01:04:29.472Z,76.81
2019-04-14T01:07:02.278Z,77.11
2019-04-14T01:09:34.793Z,77.18
2019-04-14T01:12:08.721Z,77.24
2019-04-14T01:14:40.931Z,77.50
2019-04-14T01:17:15.973Z,77.19
2019-04-14T01:19:48.432Z,77.27
2019-04-14T01:22:20.632Z,77.40
2019-04-14T01:24:53.297Z,77.22
2019-04-14T01:27:25.619Z,77.20
2019-04-14T01:29:58.140Z,77.12
2019-04-14T01:32:30.491Z,77.62
2019-04-14T01:35:03.084Z,77.76
2019-04-14T01:37:35.443Z,77.55
2019-04-14T01:40:09.952Z,77.13
2019-04-14T01:42:42.085Z,77.09
2019-04-14T01:45:16.466Z,77.67
2019-04-14T01:47:48.989Z,77.29
2019-04-14T01:50:23.450Z,77.36
2019-04-14T01:53:03.226Z,77.08
2019-04-14T01:55:43.886Z,77.65
2019-04-14T01:58:20.772Z,77.04
2019-04-14T02:00:55.333Z,76.54
2019-04-14T02:03:28.112Z,77.39
2019-04-14T02:06:00.381Z,77.58
2019-04-14T02:08:32.904Z,77.67
2019-04-14T02:11:05.217Z,77.85
2019-04-14T02:13:37.689Z,78.20
2019-04-14T02:16:18.776Z,78.42
2019-04-14T02:18:44.931Z,78.40
2019-04-14T02:21:17.228Z,78.54
2019-04-14T02:23:49.827Z,78.85
2019-04-14T02:26:22.049Z,78.74
2019-04-14T02:28:54.897Z,79.01
2019-04-14T02:31:53.502Z,78.81
2019-04-14T02:34:34.619Z,78.90
2019-04-14T02:42:17.560Z,79.65
2019-04-14T02:47:48.774Z,79.86
2019-04-14T02:52:20.588Z,79.68
2019-04-14T02:54:59.680Z,80.03
2019-04-14T02:57:41.663Z,79.67
2019-04-14T02:59:58.475Z,79.65
2019-04-14T03:05:01.866Z,80.10
2019-04-14T03:12:54.852Z,79.68
2019-04-14T03:15:35.326Z,79.45
2019-04-14T03:18:24.525Z,79.35
2019-04-14T03:21:09.253Z,79.33
2019-04-14T03:23:53.438Z,79.35
2019-04-14T03:26:26.171Z,79.13
2019-04-14T03:29:05.424Z,79.14
2019-04-14T03:32:07.451Z,79.13
2019-04-14T03:39:23.345Z,79.64
2019-04-14T03:41:56.588Z,79.65
2019-04-14T03:44:34.653Z,79.54
2019-04-14T03:49:42.892Z,79.23
2019-04-14T03:52:04.002Z,79.29
2019-04-14T03:54:36.637Z,79.54
2019-04-14T03:56:53.787Z,79.62
2019-04-14T03:59:26.144Z,79.57
2019-04-14T04:01:58.691Z,79.49
2019-04-14T04:04:31.576Z,79.78
2019-04-14T04:07:03.866Z,79.79
2019-04-14T04:09:43.424Z,79.82
2019-04-14T04:12:16.098Z,79.51
2019-04-14T04:14:48.511Z,79.22
2019-04-14T04:17:23.315Z,79.13
2019-04-14T04:20:04.556Z,79.39
2019-04-14T04:22:52.294Z,79.38
2019-04-14T04:25:26.642Z,79.37
2019-04-14T04:27:59.940Z,79.49
2019-04-14T04:30:36.383Z,79.69
2019-04-14T04:33:13.299Z,79.92
2019-04-14T04:35:58.703Z,79.62
2019-04-14T04:38:42.041Z,79.88
2019-04-14T04:41:16.837Z,80.03
2019-04-14T04:43:51.814Z,80.34
2019-04-14T04:46:26.584Z,80.17
2019-04-14T04:49:09.604Z,80.34
2019-04-14T04:51:35.706Z,80.79
2019-04-14T04:54:08.408Z,81.06
2019-04-14T04:56:40.512Z,80.38
2019-04-14T04:59:14.666Z,80.22
2019-04-14T05:01:47.319Z,80.52
2019-04-14T05:04:22.017Z,80.52
2019-04-14T05:07:01.538Z,80.80
2019-04-14T05:09:38.857Z,80.80
2019-04-14T05:12:15.816Z,80.63
2019-04-14T05:15:01.390Z,80.63
2019-04-14T05:17:41.013Z,80.59
2019-04-14T05:20:13.707Z,80.34
2019-04-14T05:22:46.173Z,79.96
2019-04-14T05:25:18.879Z,79.66
2019-04-14T05:27:51.634Z,79.91
2019-04-14T05:30:24.285Z,80.12
2019-04-14T05:32:56.549Z,79.89
2019-04-14T05:35:29.100Z,78.98
2019-04-14T05:38:02.596Z,79.02
2019-04-14T05:40:34.363Z,78.94
2019-04-14T05:43:28.382Z,78.18
2019-04-14T05:45:50.363Z,78.10
2019-04-14T05:48:22.887Z,77.94
2019-04-14T05:50:55.603Z,78.17
2019-04-14T05:53:28.275Z,78.27
2019-04-14T05:56:01.462Z,78.50
2019-04-14T05:58:34.526Z,78.97
2019-04-14T06:01:06.921Z,78.79
2019-04-14T06:03:38.814Z,79.28
2019-04-14T06:06:10.340Z,79.24
2019-04-14T06:08:43.157Z,78.94
2019-04-14T06:11:15.863Z,79.32
2019-04-14T06:13:49.065Z,79.54
2019-04-14T06:16:21.628Z,79.56
2019-04-14T06:18:53.254Z,79.34
2019-04-14T06:21:25.461Z,79.35
2019-04-14T06:23:58.826Z,78.98
2019-04-14T06:26:30.384Z,78.27
2019-04-14T06:29:01.932Z,78.52
2019-04-14T06:31:53.911Z,78.42
2019-04-14T06:34:34.551Z,78.15
2019-04-14T06:37:08.138Z,77.72
2019-04-14T06:39:44.461Z,77.41
2019-04-14T06:42:16.641Z,77.30
2019-04-14T06:44:49.394Z,77.38
2019-04-14T06:47:21.214Z,76.70
2019-04-14T06:49:53.142Z,76.30
2019-04-14T06:52:25.142Z,76.30
2019-04-14T06:54:56.844Z,76.02
2019-04-14T06:57:29.652Z,76.23
2019-04-14T07:00:02.343Z,76.33
2019-04-14T07:02:35.755Z,75.93
2019-04-14T07:05:08.923Z,75.75
2019-04-14T07:07:40.413Z,75.37
2019-04-14T07:10:12.479Z,75.14
2019-04-14T07:12:45.192Z,75.41
2019-04-14T07:15:17.065Z,74.86
2019-04-14T07:17:48.724Z,74.85
2019-04-14T07:20:20.682Z,74.27
2019-04-14T07:22:52.907Z,74.20
2019-04-14T07:25:26.510Z,74.52
2019-04-14T07:27:58.892Z,74.51
2019-04-14T07:30:43.346Z,74.43
2019-04-14T07:33:33.748Z,74.37
2019-04-14T07:36:13.013Z,74.82
2019-04-14T07:38:49.039Z,74.33
2019-04-14T07:41:34.892Z,74.66
2019-04-14T07:44:21.362Z,74.56
2019-04-14T07:47:08.263Z,74.86
2019-04-14T07:49:44.396Z,74.54
2019-04-14T07:52:29.992Z,73.95
2019-04-14T07:55:12.346Z,73.66
2019-04-14T07:58:04.101Z,73.72
2019-04-14T08:00:43.101Z,73.28
2019-04-14T08:03:22.846Z,73.62
2019-04-14T08:05:54.549Z,73.92
2019-04-14T08:08:26.526Z,72.88
2019-04-14T08:10:58.305Z,71.91
2019-04-14T08:13:30.040Z,71.85
2019-04-14T08:16:01.747Z,72.38
2019-04-14T08:18:33.285Z,72.43
2019-04-14T08:21:05.131Z,72.71
2019-04-14T08:23:36.734Z,73.41
2019-04-14T08:26:08.269Z,73.57
2019-04-14T08:28:41.209Z,73.86
2019-04-14T08:31:12.605Z,73.33
2019-04-14T08:33:44.259Z,72.79
2019-04-14T08:36:15.896Z,72.38
2019-04-14T08:38:48.984Z,72.33
2019-04-14T08:41:20.325Z,72.05
2019-04-14T08:43:56.280Z,72.24
2019-04-14T08:46:29.402Z,71.95
2019-04-14T08:49:02.583Z,72.32
2019-04-14T08:51:35.991Z,72.69
2019-04-14T08:54:09.248Z,71.52
2019-04-14T08:56:48.620Z,71.68
2019-04-14T08:59:30.743Z,72.08
2019-04-14T09:02:19.988Z,72.48
2019-04-14T09:04:55.685Z,72.05
2019-04-14T09:07:28.845Z,71.87
2019-04-14T09:10:17.095Z,71.84
2019-04-14T09:12:50.203Z,71.90
2019-04-14T09:15:22.280Z,72.05
2019-04-14T09:17:54.262Z,71.81
2019-04-14T09:20:25.939Z,71.14
2019-04-14T09:22:58.125Z,70.50
2019-04-14T09:25:30.228Z,70.23
2019-04-14T09:28:03.143Z,70.93
2019-04-14T09:30:36.161Z,70.99
2019-04-14T09:33:08.160Z,71.01
2019-04-14T09:35:47.804Z,70.30
2019-04-14T09:38:19.523Z,70.54
2019-04-14T09:40:51.601Z,70.12
2019-04-14T09:43:30.106Z,70.57
2019-04-14T09:46:02.566Z,71.10
2019-04-14T09:48:34.793Z,70.82
2019-04-14T09:51:06.472Z,70.77
2019-04-14T09:53:39.269Z,69.91
2019-04-14T09:56:10.926Z,69.12
2019-04-14T09:58:43.049Z,68.66
2019-04-14T10:01:14.964Z,68.48
2019-04-14T10:03:46.773Z,68.26
2019-04-14T10:06:18.478Z,68.22
2019-04-14T10:08:50.295Z,68.53
2019-04-14T10:11:22.001Z,68.68
2019-04-14T10:13:55.526Z,68.28
2019-04-14T10:16:33.727Z,68.54
2019-04-14T10:19:12.642Z,68.49
2019-04-14T10:21:46.038Z,68.75
2019-04-14T10:24:17.891Z,68.23
2019-04-14T10:26:54.992Z,68.11
2019-04-14T10:29:27.946Z,68.07
2019-04-14T10:32:01.153Z,67.85
2019-04-14T10:34:32.846Z,68.09
2019-04-14T10:37:05.828Z,68.09
2019-04-14T10:39:38.270Z,68.20
2019-04-14T10:42:10.551Z,67.31
2019-04-14T10:44:42.107Z,67.69
2019-04-14T10:47:13.783Z,66.82
2019-04-14T10:49:45.519Z,66.60
2019-04-14T10:52:18.898Z,66.76
2019-04-14T10:54:50.602Z,66.84
2019-04-14T10:57:25.200Z,67.18
2019-04-14T10:59:57.097Z,67.73
2019-04-14T11:02:28.988Z,67.16
2019-04-14T11:05:00.914Z,66.87
2019-04-14T11:07:32.545Z,67.29
2019-04-14T11:10:08.507Z,67.22
2019-04-14T11:12:41.175Z,66.91
2019-04-14T11:15:15.561Z,67.10
2019-04-14T11:17:47.306Z,67.46
2019-04-14T11:20:20.259Z,68.15
2019-04-14T11:23:02.767Z,67.85
2019-04-14T11:25:25.199Z,68.06
2019-04-14T11:27:57.853Z,67.67
2019-04-14T11:30:30.582Z,68.18
2019-04-14T11:33:09.919Z,67.96
2019-04-14T11:35:49.034Z,68.60
2019-04-14T11:38:25.740Z,68.43
2019-04-14T11:40:58.796Z,68.32
2019-04-14T11:43:30.464Z,68.25
2019-04-14T11:46:03.718Z,68.25
2019-04-14T11:48:36.737Z,68.33
2019-04-14T11:51:08.487Z,67.50
2019-04-14T11:53:40.579Z,68.02
2019-04-14T11:56:14.575Z,67.42
2019-04-14T11:58:46.121Z,67.52
2019-04-14T12:01:19.283Z,67.44
2019-04-14T12:04:04.855Z,67.49
2019-04-14T12:06:43.992Z,67.62
2019-04-14T12:09:32.654Z,68.21
2019-04-14T12:12:05.374Z,68.39
2019-04-14T12:14:37.228Z,68.01
2019-04-14T12:17:08.772Z,67.36
2019-04-14T12:19:41.089Z,67.44
2019-04-14T12:22:13.885Z,67.62
2019-04-14T12:24:45.395Z,67.71
2019-04-14T12:27:17.132Z,67.49
2019-04-14T12:29:50.094Z,67.42
2019-04-14T12:32:22.318Z,67.62
2019-04-14T12:34:53.970Z,67.69
2019-04-14T12:37:25.668Z,67.95
2019-04-14T12:39:58.302Z,67.86
2019-04-14T12:42:38.433Z,67.87
2019-04-14T12:45:32.458Z,68.29
2019-04-14T12:48:14.369Z,68.45
2019-04-14T12:50:53.357Z,68.65
2019-04-14T12:53:25.186Z,68.72
2019-04-14T12:55:56.883Z,69.05
2019-04-14T12:58:46.904Z,68.53
2019-04-14T13:01:21.048Z,68.83
2019-04-14T13:03:57.188Z,69.11
2019-04-14T13:06:28.868Z,69.35
2019-04-14T13:09:01.102Z,69.58
2019-04-14T13:11:33.961Z,69.44
2019-04-14T13:14:11.695Z,69.75
2019-04-14T13:16:44.457Z,69.96
2019-04-14T13:19:16.373Z,69.58
2019-04-14T13:21:48.271Z,69.34
2019-04-14T13:24:20.233Z,69.30
2019-04-14T13:26:52.475Z,69.39
2019-04-14T13:29:25.083Z,69.42
2019-04-14T13:31:57.328Z,69.91
2019-04-14T13:34:29.892Z,69.44
2019-04-14T13:37:01.676Z,69.59
2019-04-14T13:39:33.392Z,69.65
2019-04-14T13:44:43.010Z,69.55
2019-04-14T13:47:14.993Z,69.90
2019-04-14T13:49:47.960Z,69.98
2019-04-14T13:52:19.604Z,69.88
2019-04-14T13:54:52.471Z,70.33
2019-04-14T13:57:25.912Z,70.34
2019-04-14T13:59:57.306Z,70.21
2019-04-14T14:02:30.724Z,70.29
2019-04-14T14:05:02.437Z,69.91
2019-04-14T14:07:34.015Z,70.26
2019-04-14T14:10:08.842Z,70.10
2019-04-14T14:12:47.739Z,70.27
2019-04-14T14:15:33.306Z,70.39
2019-04-14T14:18:22.947Z,70.22
2019-04-14T14:21:14.842Z,70.03
2019-04-14T14:23:48.175Z,69.90
2019-04-14T14:26:32.060Z,70.42
2019-04-14T14:29:03.977Z,69.95
2019-04-14T14:31:36.392Z,70.70
2019-04-14T14:34:11.289Z,70.10
2019-04-14T14:36:43.102Z,70.11
2019-04-14T14:39:16.233Z,69.95
2019-04-14T14:41:47.867Z,70.04
2019-04-14T14:44:22.676Z,69.93
2019-04-14T14:46:56.880Z,69.92
2019-04-14T14:49:45.563Z,69.92
2019-04-14T14:52:18.802Z,70.07
2019-04-14T14:54:53.189Z,70.45
2019-04-14T14:57:25.119Z,70.32
2019-04-14T14:59:57.243Z,70.33
2019-04-14T15:02:31.010Z,70.47
2019-04-14T15:05:04.887Z,70.10
2019-04-14T15:07:38.924Z,70.51
2019-04-14T15:10:13.517Z,70.73
2019-04-14T15:12:48.201Z,70.44
2019-04-14T15:15:20.337Z,70.47
2019-04-14T15:17:58.375Z,70.46
2019-04-14T15:23:03.640Z,70.50
2019-04-14T15:25:36.730Z,70.33
2019-04-14T15:28:09.413Z,70.28
2019-04-14T15:30:41.558Z,70.50
2019-04-14T15:33:13.425Z,70.74
2019-04-14T15:35:46.245Z,70.78
2019-04-14T15:38:17.941Z,70.73
2019-04-14T15:40:51.664Z,70.65
2019-04-14T15:43:24.043Z,70.73
2019-04-14T15:45:57.007Z,70.75
2019-04-14T15:48:28.778Z,71.26
2019-04-14T15:51:00.684Z,71.46
2019-04-14T15:53:38.237Z,71.34
2019-04-14T15:56:10.152Z,71.52
2019-04-14T15:58:50.047Z,71.64
2019-04-14T16:01:33.475Z,71.99
2019-04-14T16:04:10.670Z,71.56
2019-04-14T16:06:44.107Z,71.55
2019-04-14T16:09:25.008Z,71.95
2019-04-14T16:12:01.209Z,71.99
2019-04-14T16:14:50.974Z,71.62
2019-04-14T16:17:30.998Z,71.68
2019-04-14T16:20:07.787Z,71.59
2019-04-14T16:22:39.352Z,71.91
2019-04-14T16:25:11.204Z,71.63
2019-04-14T16:28:02.132Z,71.78
2019-04-14T16:30:55.476Z,71.69
2019-04-14T16:33:29.164Z,72.45
2019-04-14T16:36:01.076Z,71.90
2019-04-14T16:38:33.661Z,71.71
2019-04-14T16:41:12.862Z,71.93
2019-04-14T16:43:45.030Z,71.73
2019-04-14T16:46:18.575Z,71.81
2019-04-14T16:48:51.844Z,71.75
2019-04-14T16:51:28.519Z,72.09
2019-04-14T16:54:03.518Z,72.00
2019-04-14T16:56:53.453Z,71.91
2019-04-14T16:59:27.031Z,71.92
2019-04-14T17:02:10.357Z,72.23
2019-04-14T17:04:33.247Z,71.73
2019-04-14T17:07:12.815Z,71.94
2019-04-14T17:09:45.768Z,72.03
2019-04-14T17:12:19.346Z,71.82
2019-04-14T17:14:58.938Z,71.95
2019-04-14T17:17:44.791Z,72.03
2019-04-14T17:20:22.906Z,72.30
2019-04-14T17:23:05.425Z,72.29
2019-04-14T17:25:41.669Z,72.64
2019-04-14T17:28:15.388Z,72.57
2019-04-14T17:30:48.820Z,72.41
2019-04-14T17:33:22.497Z,72.30
2019-04-14T17:36:12.474Z,72.42
2019-04-14T17:39:07.190Z,72.55
2019-04-14T17:42:01.375Z,72.79
2019-04-14T17:44:34.951Z,72.93
2019-04-14T17:47:14.926Z,72.67
2019-04-14T17:50:05.072Z,73.04
2019-04-14T17:52:39.618Z,72.78
2019-04-14T17:55:17.768Z,72.86
2019-04-14T17:57:54.065Z,72.52
2019-04-14T18:00:32.086Z,72.87
2019-04-14T18:03:13.144Z,72.94
2019-04-14T18:05:56.838Z,72.96
2019-04-14T18:08:36.143Z,73.31
2019-04-14T18:11:30.081Z,73.07
2019-04-14T18:14:11.552Z,73.13
2019-04-14T18:16:55.662Z,73.26
2019-04-14T18:19:35.313Z,73.27
2019-04-14T18:22:07.595Z,73.33
2019-04-14T18:24:42.593Z,73.39
2019-04-14T18:27:16.686Z,73.73
2019-04-14T18:29:53.193Z,73.85
2019-04-14T18:32:36.169Z,73.99
2019-04-14T18:35:15.479Z,73.97
2019-04-14T18:37:49.436Z,74.35
2019-04-14T18:40:28.653Z,74.38
2019-04-14T18:43:15.969Z,74.63
2019-04-14T18:45:58.344Z,74.60
2019-04-14T18:48:35.229Z,74.73
2019-04-14T18:51:08.912Z,74.91
2019-04-14T18:53:49.728Z,74.97
2019-04-14T18:56:25.742Z,74.94
2019-04-14T18:59:15.567Z,75.05
2019-04-14T19:01:53.607Z,75.14
2019-04-14T19:04:27.985Z,75.53
2019-04-14T19:07:02.345Z,75.45
2019-04-14T19:09:34.884Z,75.85
2019-04-14T19:12:20.595Z,76.17
2019-04-14T19:15:02.197Z,76.43
2019-04-14T19:17:38.663Z,76.74
2019-04-14T19:20:11.570Z,76.48
2019-04-14T19:22:42.999Z,76.73
2019-04-14T19:25:16.956Z,77.09
2019-04-14T19:27:48.781Z,77.48
2019-04-14T19:30:20.766Z,77.48
2019-04-14T19:32:57.646Z,77.60
2019-04-14T19:35:33.827Z,77.98
2019-04-14T19:38:09.863Z,78.22
2019-04-14T19:40:42.933Z,78.44
2019-04-14T19:43:23.570Z,78.78
2019-04-14T19:45:52.217Z,79.26
2019-04-14T19:48:23.822Z,79.66
2019-04-14T19:50:57.010Z,79.95
2019-04-14T19:53:28.809Z,80.36
2019-04-14T19:56:00.670Z,80.08
2019-04-14T19:58:32.547Z,79.56
2019-04-14T20:01:07.992Z,79.81
2019-04-14T20:03:44.021Z,79.81
2019-04-14T20:06:17.401Z,80.31
2019-04-14T20:08:51.212Z,81.49
2019-04-14T20:11:27.445Z,81.73
2019-04-14T20:14:01.178Z,82.49
2019-04-14T20:16:41.255Z,82.77
2019-04-14T20:19:24.665Z,82.96
2019-04-14T20:22:04.130Z,83.52
2019-04-14T20:24:51.360Z,84.14
2019-04-14T20:27:37.121Z,84.45
2019-04-14T20:30:14.387Z,85.00
2019-04-14T20:32:46.379Z,85.09
2019-04-14T20:35:18.378Z,85.42
2019-04-14T20:37:50.484Z,85.78
2019-04-14T20:40:26.275Z,86.17
2019-04-14T20:43:03.330Z,86.23
2019-04-14T20:45:44.184Z,86.54
2019-04-14T20:48:23.199Z,86.15
2019-04-14T20:50:56.589Z,86.38
2019-04-14T20:53:32.577Z,86.50
2019-04-14T20:56:04.533Z,86.91
2019-04-14T20:58:36.401Z,86.96
2019-04-14T21:01:09.791Z,86.99
2019-04-14T21:03:49.107Z,86.78
2019-04-14T21:06:22.567Z,86.67
2019-04-14T21:09:11.282Z,86.83
2019-04-14T21:12:01.602Z,87.11
2019-04-14T21:14:40.848Z,87.19
2019-04-14T21:17:31.654Z,87.66
2019-04-14T21:20:21.059Z,88.02
2019-04-14T21:23:00.012Z,87.67
2019-04-14T21:25:37.191Z,88.00
2019-04-14T21:28:15.708Z,88.10
2019-04-14T21:30:58.284Z,88.36
2019-04-14T21:33:43.873Z,88.45
2019-04-14T21:36:35.496Z,88.37
2019-04-14T21:39:12.208Z,88.35
2019-04-14T21:41:46.794Z,88.58
2019-04-14T21:44:18.683Z,88.14
2019-04-14T21:46:50.435Z,88.14
2019-04-14T21:49:22.103Z,88.27
2019-04-14T21:52:08.236Z,88.05
2019-04-14T21:54:41.489Z,88.61
2019-04-14T21:57:33.998Z,89.01
2019-04-14T22:00:27.090Z,89.28
2019-04-14T22:03:13.258Z,88.08
2019-04-14T22:05:49.008Z,88.13
2019-04-14T22:08:34.381Z,88.43
2019-04-14T22:11:21.124Z,88.73
2019-04-14T22:13:53.016Z,88.43
2019-04-14T22:16:27.311Z,88.67
2019-04-14T22:18:59.472Z,89.02
2019-04-14T22:21:31.296Z,88.88
2019-04-14T22:24:03.090Z,88.64
2019-04-14T22:26:34.902Z,88.75
2019-04-14T22:29:06.803Z,88.88
2019-04-14T22:31:38.621Z,88.85
2019-04-14T22:34:10.546Z,88.65
2019-04-14T22:36:43.011Z,88.95
2019-04-14T22:39:16.412Z,88.77
2019-04-14T22:41:48.182Z,88.29
2019-04-14T22:44:20.444Z,88.29
2019-04-14T22:46:53.140Z,88.31
2019-04-14T22:49:25.304Z,88.50
2019-04-14T22:51:57.856Z,88.36
2019-04-14T22:54:29.643Z,88.61
2019-04-14T22:57:02.089Z,88.78
2019-04-14T22:59:33.674Z,88.32
2019-04-14T23:02:16.260Z,88.12
2019-04-14T23:05:07.799Z,88.29
2019-04-14T23:07:44.207Z,87.86
2019-04-14T23:10:20.837Z,87.88
2019-04-14T23:13:06.673Z,88.82
2019-04-14T23:15:58.002Z,87.97
2019-04-14T23:18:46.189Z,88.33
2019-04-14T23:21:23.685Z,88.04
2019-04-14T23:24:05.694Z,88.26
2019-04-14T23:26:37.312Z,88.28
2019-04-14T23:29:08.935Z,88.49
2019-04-14T23:31:40.699Z,87.92
2019-04-14T23:34:12.343Z,88.14
2019-04-14T23:36:43.909Z,88.70
2019-04-14T23:39:15.379Z,88.88
2019-04-14T23:41:47.217Z,88.45
2019-04-14T23:44:19.821Z,88.17
2019-04-14T23:46:54.448Z,88.61
2019-04-14T23:49:26.274Z,88.31
2019-04-14T23:51:57.913Z,88.48
2019-04-14T23:54:29.557Z,88.79
2019-04-14T23:57:06.023Z,89.00
2019-04-14T23:59:34.640Z,89.00
